createdAt,value
2018-07-25T00:00:35.526Z,101262.92
2018-07-25T00:03:04.751Z,101260.93
2018-07-25T00:05:33.816Z,101260.15
2018-07-25T00:08:03.393Z,101256.78
2018-07-25T00:10:37.671Z,101256.00
2018-07-25T00:13:07.117Z,101257.95
2018-07-25T00:15:35.865Z,101254.11
2018-07-25T00:18:04.962Z,101258.82
2018-07-25T00:20:33.989Z,101251.25
2018-07-25T00:23:02.914Z,101256.31
2018-07-25T00:25:32.232Z,101252.72
2018-07-25T00:28:01.058Z,101253.89
2018-07-25T00:30:30.334Z,101253.70
2018-07-25T00:32:59.368Z,101249.17
2018-07-25T00:35:28.113Z,101251.13
2018-07-25T00:37:57.187Z,101254.66
2018-07-25T00:40:26.293Z,101257.20
2018-07-25T00:42:55.486Z,101250.23
2018-07-25T00:45:24.591Z,101250.80
2018-07-25T00:47:53.366Z,101255.11
2018-07-25T00:50:22.796Z,101252.73
2018-07-25T00:52:51.989Z,101251.91
2018-07-25T00:55:20.995Z,101248.70
2018-07-25T00:57:49.751Z,101254.36
2018-07-25T01:00:19.054Z,101249.38
2018-07-25T01:02:48.394Z,101242.23
2018-07-25T01:05:17.838Z,101244.56
2018-07-25T01:07:47.221Z,101245.38
2018-07-25T01:10:16.300Z,101248.06
2018-07-25T01:12:45.293Z,101240.94
2018-07-25T01:15:14.588Z,101242.30
2018-07-25T01:17:43.365Z,101246.25
2018-07-25T01:20:12.537Z,101247.06
2018-07-25T01:22:41.818Z,101251.38
2018-07-25T01:25:10.562Z,101247.28
2018-07-25T01:27:39.789Z,101249.23
2018-07-25T01:30:08.520Z,101255.53
2018-07-25T01:32:37.231Z,101253.55
2018-07-25T01:35:06.410Z,101254.91
2018-07-25T01:37:35.230Z,101248.18
2018-07-25T01:40:03.992Z,101251.47
2018-07-25T01:42:32.995Z,101250.61
2018-07-25T01:45:01.709Z,101258.06
2018-07-25T01:47:30.771Z,101257.66
2018-07-25T01:49:59.591Z,101262.21
2018-07-25T01:52:29.202Z,101259.66
2018-07-25T01:54:58.296Z,101256.69
2018-07-25T01:57:27.277Z,101261.80
2018-07-25T01:59:56.334Z,101262.38
2018-07-25T02:02:25.047Z,101259.59
2018-07-25T02:04:54.025Z,101257.05
2018-07-25T02:07:22.816Z,101262.19
2018-07-25T02:09:52.082Z,101264.14
2018-07-25T02:12:21.210Z,101253.30
2018-07-25T02:14:50.263Z,101255.28
2018-07-25T02:17:19.602Z,101253.08
2018-07-25T02:19:48.708Z,101253.24
2018-07-25T02:22:17.866Z,101256.17
2018-07-25T02:24:47.167Z,101248.70
2018-07-25T02:27:16.281Z,101251.78
2018-07-25T02:29:45.681Z,101262.22
2018-07-25T02:32:14.419Z,101252.90
2018-07-25T02:34:44.098Z,101260.95
2018-07-25T02:37:13.020Z,101267.01
2018-07-25T02:39:41.893Z,101270.53
2018-07-25T02:42:10.701Z,101269.09
2018-07-25T02:44:39.553Z,101264.73
2018-07-25T02:47:08.365Z,101265.89
2018-07-25T02:49:37.113Z,101262.56
2018-07-25T02:52:06.399Z,101262.41
2018-07-25T02:54:35.469Z,101262.59
2018-07-25T02:57:04.242Z,101262.41
2018-07-25T02:59:33.647Z,101266.73
2018-07-25T03:02:02.375Z,101268.33
2018-07-25T03:04:31.463Z,101271.64
2018-07-25T03:07:00.271Z,101265.89
2018-07-25T03:09:29.107Z,101268.19
2018-07-25T03:11:58.616Z,101276.07
2018-07-25T03:14:27.469Z,101280.53
2018-07-25T03:16:56.399Z,101276.52
2018-07-25T03:19:25.742Z,101282.35
2018-07-25T03:21:54.732Z,101281.06
2018-07-25T03:24:24.215Z,101284.36
2018-07-25T03:26:52.928Z,101280.38
2018-07-25T03:29:21.825Z,101286.87
2018-07-25T03:31:50.955Z,101291.73
2018-07-25T03:34:19.745Z,101292.33
2018-07-25T03:36:48.768Z,101296.31
2018-07-25T03:39:17.544Z,101300.61
2018-07-25T03:41:46.545Z,101294.86
2018-07-25T03:44:15.403Z,101295.69
2018-07-25T03:46:44.203Z,101305.28
2018-07-25T03:49:13.081Z,101300.12
2018-07-25T03:51:41.917Z,101301.52
2018-07-25T03:54:10.753Z,101291.63
2018-07-25T03:56:40.127Z,101303.77
2018-07-25T03:59:09.292Z,101309.28
2018-07-25T04:01:38.455Z,101304.14
2018-07-25T04:04:07.610Z,101310.11
2018-07-25T04:06:37.216Z,101312.02
2018-07-25T04:09:09.299Z,101307.47
2018-07-25T04:11:38.592Z,101311.91
2018-07-25T04:14:07.470Z,101314.82
2018-07-25T04:16:36.870Z,101319.55
2018-07-25T04:19:05.914Z,101320.94
2018-07-25T04:21:35.313Z,101317.06
2018-07-25T04:24:04.321Z,101314.89
2018-07-25T04:26:34.101Z,101315.27
2018-07-25T04:29:03.378Z,101316.98
2018-07-25T04:31:32.775Z,101316.35
2018-07-25T04:34:01.696Z,101314.19
2018-07-25T04:36:30.714Z,101318.96
2018-07-25T04:38:59.962Z,101322.61
2018-07-25T04:41:28.889Z,101319.00
2018-07-25T04:43:57.912Z,101323.06
2018-07-25T04:46:27.510Z,101320.67
2018-07-25T04:48:56.100Z,101331.27
2018-07-25T04:51:25.346Z,101331.90
2018-07-25T04:53:54.655Z,101328.36
2018-07-25T04:56:23.771Z,101335.81
2018-07-25T04:58:53.231Z,101331.53
2018-07-25T05:01:21.991Z,101335.33
2018-07-25T05:03:51.090Z,101343.45
2018-07-25T05:06:19.989Z,101341.78
2018-07-25T05:08:48.931Z,101344.39
2018-07-25T05:11:18.002Z,101352.48
2018-07-25T05:13:47.300Z,101351.51
2018-07-25T05:16:16.244Z,101360.30
2018-07-25T05:18:45.551Z,101364.71
2018-07-25T05:21:15.277Z,101361.91
2018-07-25T05:23:45.976Z,101364.00
2018-07-25T05:26:14.912Z,101358.70
2018-07-25T05:28:44.365Z,101356.36
2018-07-25T05:31:15.987Z,101364.19
2018-07-25T05:33:47.682Z,101354.80
2018-07-25T05:36:17.525Z,101357.48
2018-07-25T05:38:46.437Z,101360.01
2018-07-25T05:41:15.707Z,101356.41
2018-07-25T05:43:45.091Z,101355.14
2018-07-25T05:46:19.178Z,101355.69
2018-07-25T05:48:48.342Z,101350.27
2018-07-25T05:51:17.287Z,101352.52
2018-07-25T05:53:46.324Z,101352.50
2018-07-25T05:56:16.353Z,101353.56
2018-07-25T05:58:45.894Z,101357.64
2018-07-25T06:01:14.695Z,101358.34
2018-07-25T06:03:43.668Z,101362.22
2018-07-25T06:06:12.509Z,101362.69
2018-07-25T06:08:41.338Z,101370.13
2018-07-25T06:11:10.507Z,101376.71
2018-07-25T06:13:40.872Z,101371.27
2018-07-25T06:16:09.846Z,101370.21
2018-07-25T06:18:39.266Z,101367.34
2018-07-25T06:21:08.010Z,101369.99
2018-07-25T06:23:36.761Z,101372.62
2018-07-25T06:26:06.167Z,101374.11
2018-07-25T06:28:35.506Z,101377.11
2018-07-25T06:31:04.234Z,101365.93
2018-07-25T06:33:33.326Z,101379.87
2018-07-25T06:36:02.506Z,101375.23
2018-07-25T06:38:31.279Z,101372.31
2018-07-25T06:41:00.255Z,101373.78
2018-07-25T06:43:28.982Z,101382.34
2018-07-25T06:45:58.235Z,101388.98
2018-07-25T06:48:27.466Z,101387.09
2018-07-25T06:50:56.730Z,101386.83
2018-07-25T06:53:26.061Z,101381.17
2018-07-25T06:55:55.055Z,101383.59
2018-07-25T06:58:24.173Z,101393.16
2018-07-25T07:00:52.919Z,101392.81
2018-07-25T07:03:21.721Z,101391.86
2018-07-25T07:05:50.748Z,101393.74
2018-07-25T07:08:19.986Z,101395.16
2018-07-25T07:10:48.997Z,101393.17
2018-07-25T07:13:17.791Z,101389.44
2018-07-25T07:15:47.154Z,101395.66
2018-07-25T07:18:16.220Z,101396.84
2018-07-25T07:20:45.290Z,101403.05
2018-07-25T07:23:14.304Z,101408.81
2018-07-25T07:25:43.135Z,101413.42
2018-07-25T07:28:12.158Z,101415.44
2018-07-25T07:30:40.945Z,101424.00
2018-07-25T07:33:10.206Z,101419.45
2018-07-25T07:35:39.262Z,101418.33
2018-07-25T07:38:08.665Z,101421.38
2018-07-25T07:40:38.294Z,101415.64
2018-07-25T07:43:07.839Z,101416.86
2018-07-25T07:45:37.562Z,101422.02
2018-07-25T07:48:06.924Z,101420.05
2018-07-25T07:50:35.655Z,101424.84
2018-07-25T07:53:04.691Z,101432.79
2018-07-25T07:55:34.152Z,101420.13
2018-07-25T07:58:03.490Z,101415.20
2018-07-25T08:00:32.212Z,101420.95
2018-07-25T08:03:00.993Z,101424.92
2018-07-25T08:05:30.063Z,101423.02
2018-07-25T08:07:58.851Z,101419.06
2018-07-25T08:10:27.948Z,101423.01
2018-07-25T08:12:57.014Z,101423.02
2018-07-25T08:15:26.295Z,101419.08
2018-07-25T08:17:55.325Z,101417.11
2018-07-25T08:20:24.446Z,101421.48
2018-07-25T08:22:53.633Z,101418.56
2018-07-25T08:25:22.392Z,101416.97
2018-07-25T08:27:51.423Z,101414.55
2018-07-25T08:30:20.191Z,101424.47
2018-07-25T08:32:49.198Z,101426.77
2018-07-25T08:35:17.928Z,101427.29
2018-07-25T08:37:46.663Z,101432.45
2018-07-25T08:40:15.738Z,101425.89
2018-07-25T08:42:44.840Z,101431.62
2018-07-25T08:45:14.118Z,101432.64
2018-07-25T08:47:42.887Z,101438.19
2018-07-25T08:50:11.938Z,101436.74
2018-07-25T08:52:41.051Z,101427.91
2018-07-25T08:55:10.065Z,101431.03
2018-07-25T08:57:38.918Z,101430.40
2018-07-25T09:00:07.853Z,101427.95
2018-07-25T09:02:37.133Z,101428.95
2018-07-25T09:05:05.875Z,101419.66
2018-07-25T09:07:34.669Z,101424.98
2018-07-25T09:10:03.437Z,101414.49
2018-07-25T09:12:32.809Z,101420.28
2018-07-25T09:15:01.851Z,101425.03
2018-07-25T09:17:30.641Z,101428.39
2018-07-25T09:19:59.426Z,101424.36
2018-07-25T09:22:28.670Z,101430.13
2018-07-25T09:24:57.754Z,101423.19
2018-07-25T09:27:27.194Z,101428.20
2018-07-25T09:29:56.182Z,101434.52
2018-07-25T09:32:24.940Z,101433.23
2018-07-25T09:34:54.007Z,101433.45
2018-07-25T09:37:22.831Z,101441.95
2018-07-25T09:39:51.578Z,101437.65
2018-07-25T09:42:20.628Z,101438.20
2018-07-25T09:44:49.686Z,101439.36
2018-07-25T09:47:18.741Z,101445.20
2018-07-25T09:49:48.362Z,101446.84
2018-07-25T09:52:17.120Z,101441.69
2018-07-25T09:54:46.484Z,101448.51
2018-07-25T09:57:15.483Z,101447.93
2018-07-25T09:59:44.477Z,101452.19
2018-07-25T10:02:13.672Z,101462.44
2018-07-25T10:04:42.630Z,101456.49
2018-07-25T10:07:11.704Z,101456.38
2018-07-25T10:09:40.601Z,101459.58
2018-07-25T10:12:09.491Z,101450.20
2018-07-25T10:14:38.371Z,101449.59
2018-07-25T10:17:07.148Z,101449.09
2018-07-25T10:19:36.002Z,101448.16
2018-07-25T10:22:05.129Z,101451.39
2018-07-25T10:24:33.921Z,101452.39
2018-07-25T10:27:02.773Z,101448.70
2018-07-25T10:29:32.057Z,101444.48
2018-07-25T10:32:01.188Z,101443.63
2018-07-25T10:34:29.954Z,101449.08
2018-07-25T10:36:59.736Z,101440.58
2018-07-25T10:44:54.486Z,101431.55
2018-07-25T10:47:23.598Z,101426.25
2018-07-25T10:49:53.001Z,101433.34
2018-07-25T10:52:21.751Z,101437.45
2018-07-25T10:54:51.116Z,101438.00
2018-07-25T10:57:20.240Z,101437.67
2018-07-25T10:59:51.178Z,101439.38
2018-07-25T11:02:20.551Z,101429.48
2018-07-25T11:04:50.569Z,101430.05
2018-07-25T11:07:20.662Z,101421.78
2018-07-25T11:09:49.983Z,101437.14
2018-07-25T11:12:19.163Z,101436.87
2018-07-25T11:14:48.402Z,101437.43
2018-07-25T11:17:17.157Z,101426.18
2018-07-25T11:19:46.065Z,101431.06
2018-07-25T11:22:15.203Z,101436.88
2018-07-25T11:24:43.978Z,101425.89
2018-07-25T11:27:13.339Z,101427.32
2018-07-25T11:29:43.524Z,101425.77
2018-07-25T11:32:12.347Z,101429.23
2018-07-25T11:34:41.878Z,101429.31
2018-07-25T11:37:10.629Z,101434.94
2018-07-25T11:39:39.365Z,101431.72
2018-07-25T11:42:08.243Z,101431.56
2018-07-25T11:44:37.525Z,101431.45
2018-07-25T11:47:06.637Z,101431.71
2018-07-25T11:49:35.707Z,101433.68
2018-07-25T11:52:04.776Z,101430.03
2018-07-25T11:54:33.773Z,101432.69
2018-07-25T11:57:04.445Z,101432.50
2018-07-25T11:59:33.393Z,101441.39
2018-07-25T12:02:02.151Z,101435.09
2018-07-25T12:04:31.265Z,101442.34
2018-07-25T12:09:29.515Z,101425.41
2018-07-25T12:11:58.318Z,101424.77
2018-07-25T12:14:27.500Z,101417.98
2018-07-25T12:16:56.275Z,101423.67
2018-07-25T12:19:27.118Z,101416.25
2018-07-25T12:21:56.513Z,101413.83
2018-07-25T12:24:26.690Z,101416.23
2018-07-25T12:26:56.629Z,101410.80
2018-07-25T12:29:27.187Z,101413.35
2018-07-25T12:31:57.619Z,101403.05
2018-07-25T12:34:27.363Z,101412.02
2018-07-25T12:36:56.228Z,101407.91
2018-07-25T12:39:25.511Z,101410.29
2018-07-25T12:41:56.457Z,101400.91
2018-07-25T12:44:25.338Z,101406.06
2018-07-25T12:46:54.587Z,101403.72
2018-07-25T12:49:24.049Z,101401.73
2018-07-25T12:51:52.805Z,101396.84
2018-07-25T12:54:23.089Z,101394.34
2018-07-25T12:56:53.135Z,101399.00
2018-07-25T12:59:24.413Z,101392.73
2018-07-25T13:01:53.656Z,101391.31
2018-07-25T13:04:22.976Z,101388.80
2018-07-25T13:06:52.099Z,101394.34
2018-07-25T13:09:21.522Z,101386.63
2018-07-25T13:11:50.832Z,101379.41
2018-07-25T13:14:19.863Z,101384.42
2018-07-25T13:16:48.617Z,101390.09
2018-07-25T13:19:17.997Z,101390.69
2018-07-25T13:21:47.138Z,101373.24
2018-07-25T13:24:16.158Z,101369.23
2018-07-25T13:26:45.282Z,101362.69
2018-07-25T13:29:14.437Z,101370.90
2018-07-25T13:31:44.064Z,101368.75
2018-07-25T13:34:13.451Z,101361.39
2018-07-25T13:36:42.261Z,101377.41
2018-07-25T13:39:11.493Z,101374.47
2018-07-25T13:41:40.844Z,101371.83
2018-07-25T13:44:09.884Z,101362.77
2018-07-25T13:46:39.510Z,101359.47
2018-07-25T13:49:08.598Z,101357.27
2018-07-25T13:51:37.831Z,101360.55
2018-07-25T13:54:07.990Z,101368.23
2018-07-25T13:56:37.425Z,101358.33
2018-07-25T13:59:06.635Z,101354.72
2018-07-25T14:01:35.536Z,101355.52
2018-07-25T14:04:04.589Z,101358.79
2018-07-25T14:06:34.960Z,101352.84
2018-07-25T14:09:04.274Z,101352.20
2018-07-25T14:11:33.460Z,101343.27
2018-07-25T14:14:02.665Z,101347.04
2018-07-25T14:16:31.444Z,101349.70
2018-07-25T14:19:00.326Z,101346.26
2018-07-25T14:21:30.055Z,101344.66
2018-07-25T14:23:59.986Z,101336.91
2018-07-25T14:26:28.889Z,101339.77
2018-07-25T14:28:59.751Z,101342.26
2018-07-25T14:31:29.088Z,101343.22
2018-07-25T14:33:58.124Z,101347.11
2018-07-25T14:36:27.267Z,101343.48
2018-07-25T14:38:56.387Z,101341.30
2018-07-25T14:41:25.456Z,101340.09
2018-07-25T14:43:54.216Z,101347.65
2018-07-25T14:46:23.910Z,101349.06
2018-07-25T14:48:52.899Z,101358.05
2018-07-25T14:51:21.757Z,101357.27
2018-07-25T14:53:50.751Z,101355.40
2018-07-25T14:56:19.887Z,101345.92
2018-07-25T14:58:48.632Z,101357.75
2018-07-25T15:01:17.435Z,101362.56
2018-07-25T15:03:46.348Z,101350.30
2018-07-25T15:06:15.476Z,101354.41
2018-07-25T15:08:44.514Z,101362.91
2018-07-25T15:11:14.146Z,101351.87
2018-07-25T15:13:42.928Z,101355.11
2018-07-25T15:16:12.020Z,101361.05
2018-07-25T15:18:40.785Z,101365.73
2018-07-25T15:21:09.756Z,101367.35
2018-07-25T15:23:49.957Z,101354.92
2018-07-25T15:26:18.676Z,101360.59
2018-07-25T15:28:48.220Z,101364.53
2018-07-25T15:31:17.204Z,101365.86
2018-07-25T15:33:46.471Z,101367.61
2018-07-25T15:36:26.851Z,101356.63
2018-07-25T15:38:55.714Z,101357.91
2018-07-25T15:41:24.959Z,101356.52
2018-07-25T15:43:53.990Z,101365.14
2018-07-25T15:46:23.242Z,101357.86
2018-07-25T15:48:52.678Z,101361.16
2018-07-25T15:51:21.672Z,101366.38
2018-07-25T15:53:50.438Z,101366.64
2018-07-25T15:56:20.140Z,101371.53
2018-07-25T15:58:49.520Z,101371.97
2018-07-25T16:01:18.645Z,101367.73
2018-07-25T16:03:47.431Z,101364.17
2018-07-25T16:06:16.465Z,101374.83
2018-07-25T16:08:45.258Z,101371.78
2018-07-25T16:11:16.482Z,101381.67
2018-07-25T16:13:45.286Z,101380.27
2018-07-25T16:16:16.383Z,101382.97
2018-07-25T16:18:45.203Z,101385.47
2018-07-25T16:21:14.320Z,101395.39
2018-07-25T16:23:43.106Z,101396.22
2018-07-25T16:26:13.165Z,101401.78
2018-07-25T16:28:42.226Z,101404.89
2018-07-25T16:31:12.621Z,101399.14
2018-07-25T16:33:41.381Z,101398.43
2018-07-25T16:36:12.102Z,101391.45
2018-07-25T16:38:41.626Z,101391.35
2018-07-25T16:41:10.405Z,101404.31
2018-07-25T16:43:40.111Z,101402.77
2018-07-25T16:46:09.449Z,101411.81
2018-07-25T16:48:38.432Z,101419.15
2018-07-25T16:51:07.787Z,101417.33
2018-07-25T16:53:37.111Z,101423.66
2018-07-25T16:56:06.568Z,101429.95
2018-07-25T16:58:36.934Z,101431.45
2018-07-25T17:01:05.748Z,101439.31
2018-07-25T17:03:34.633Z,101436.52
2018-07-25T17:06:03.438Z,101450.61
2018-07-25T17:08:33.186Z,101445.27
2018-07-25T17:11:02.029Z,101440.96
2018-07-25T17:13:31.006Z,101449.67
2018-07-25T17:15:59.953Z,101452.92
2018-07-25T17:18:28.844Z,101458.42
2018-07-25T17:20:57.602Z,101452.63
2018-07-25T17:23:27.180Z,101444.22
2018-07-25T17:25:56.332Z,101440.89
2018-07-25T17:28:25.234Z,101425.45
2018-07-25T17:30:54.423Z,101419.15
2018-07-25T17:33:24.085Z,101425.02
2018-07-25T17:35:53.400Z,101424.73
2018-07-25T17:41:04.036Z,101433.27
2018-07-25T17:43:33.273Z,101429.58
2018-07-25T17:46:02.127Z,101421.20
2018-07-25T17:48:34.111Z,101426.48
2018-07-25T17:51:03.779Z,101434.23
2018-07-25T17:53:33.061Z,101446.37
2018-07-25T17:56:02.695Z,101455.49
2018-07-25T17:58:32.127Z,101459.84
2018-07-25T18:01:01.466Z,101464.54
2018-07-25T18:03:31.681Z,101465.22
2018-07-25T18:06:00.837Z,101466.80
2018-07-25T18:08:29.715Z,101456.58
2018-07-25T18:10:59.153Z,101460.47
2018-07-25T18:13:33.345Z,101465.88
2018-07-25T18:16:02.481Z,101480.23
2018-07-25T18:18:31.286Z,101485.94
2018-07-25T18:21:00.903Z,101488.66
2018-07-25T18:23:30.265Z,101479.16
2018-07-25T18:25:59.465Z,101477.16
2018-07-25T18:28:28.562Z,101474.76
2018-07-25T18:30:58.262Z,101467.87
2018-07-25T18:33:27.917Z,101468.08
2018-07-25T18:35:57.258Z,101466.60
2018-07-25T18:38:26.060Z,101468.14
2018-07-25T18:40:54.858Z,101471.27
2018-07-25T18:43:24.161Z,101473.70
2018-07-25T18:45:53.344Z,101475.07
2018-07-25T18:48:22.103Z,101470.10
2018-07-25T18:50:52.234Z,101470.59
2018-07-25T18:53:29.474Z,101472.82
2018-07-25T18:55:58.825Z,101468.02
2018-07-25T18:58:27.995Z,101471.06
2018-07-25T19:00:57.032Z,101477.30
2018-07-25T19:03:25.833Z,101489.52
2018-07-25T19:05:54.904Z,101495.41
2018-07-25T19:08:23.915Z,101487.04
2018-07-25T19:10:53.618Z,101487.59
2018-07-25T19:13:27.984Z,101490.05
2018-07-25T19:18:36.586Z,101498.36
2018-07-25T19:21:09.209Z,101494.23
2018-07-25T19:23:38.874Z,101501.50
2018-07-25T19:26:07.591Z,101509.49
2018-07-25T19:28:36.553Z,101508.31
2018-07-25T19:31:10.656Z,101513.88
2018-07-25T19:33:43.658Z,101517.84
2018-07-25T19:36:12.727Z,101514.44
2018-07-25T19:38:41.686Z,101509.69
2018-07-25T19:41:11.121Z,101497.42
2018-07-25T19:43:39.928Z,101497.13
2018-07-25T19:46:09.141Z,101492.84
2018-07-25T19:48:38.166Z,101499.10
2018-07-25T19:51:07.259Z,101502.58
2018-07-25T19:53:36.252Z,101498.25
2018-07-25T19:56:05.036Z,101495.88
2018-07-25T19:58:33.824Z,101491.50
2018-07-25T20:01:02.600Z,101487.58
2018-07-25T20:03:32.700Z,101481.44
2018-07-25T20:06:01.815Z,101472.94
2018-07-25T20:08:30.943Z,101475.95
2018-07-25T20:11:00.272Z,101475.36
2018-07-25T20:13:31.499Z,101475.34
2018-07-25T20:16:01.693Z,101476.34
2018-07-25T20:18:31.694Z,101474.17
2018-07-25T20:21:00.552Z,101468.61
2018-07-25T20:23:29.678Z,101473.19
2018-07-25T20:25:58.659Z,101474.78
2018-07-25T20:28:28.014Z,101471.77
2018-07-25T20:30:56.996Z,101467.17
2018-07-25T20:33:25.818Z,101467.96
2018-07-25T20:35:55.185Z,101470.55
2018-07-25T20:38:24.421Z,101474.30
2018-07-25T20:40:53.200Z,101474.88
2018-07-25T20:43:22.960Z,101474.28
2018-07-25T20:45:51.686Z,101470.12
2018-07-25T20:48:21.847Z,101470.88
2018-07-25T20:50:52.205Z,101464.31
2018-07-25T20:53:21.231Z,101470.69
2018-07-25T20:55:50.466Z,101466.88
2018-07-25T20:58:19.265Z,101469.84
2018-07-25T21:00:48.114Z,101463.80
2018-07-25T21:03:16.873Z,101468.55
2018-07-25T21:05:46.181Z,101471.52
2018-07-25T21:08:15.157Z,101472.67
2018-07-25T21:10:44.312Z,101481.55
2018-07-25T21:13:13.149Z,101475.17
2018-07-25T21:15:43.389Z,101473.34
2018-07-25T21:18:12.202Z,101476.63
2018-07-25T21:20:40.979Z,101477.70
2018-07-25T21:23:09.724Z,101481.59
2018-07-25T21:25:38.796Z,101475.82
2018-07-25T21:28:07.880Z,101475.78
2018-07-25T21:30:36.626Z,101476.95
2018-07-25T21:33:05.941Z,101483.47
2018-07-25T21:35:35.133Z,101485.80
2018-07-25T21:38:05.185Z,101483.56
2018-07-25T21:40:33.903Z,101483.30
2018-07-25T21:43:02.673Z,101489.41
2018-07-25T21:45:31.470Z,101493.69
2018-07-25T21:48:00.906Z,101498.16
2018-07-25T21:50:29.633Z,101494.90
2018-07-25T21:52:58.727Z,101495.58
2018-07-25T21:55:28.033Z,101499.29
2018-07-25T21:57:57.111Z,101500.01
2018-07-25T22:00:26.463Z,101501.52
2018-07-25T22:02:55.631Z,101489.32
2018-07-25T22:05:25.027Z,101487.81
2018-07-25T22:07:54.121Z,101490.91
2018-07-25T22:10:26.393Z,101489.23
2018-07-25T22:12:56.029Z,101495.29
2018-07-25T22:15:25.349Z,101490.87
2018-07-25T22:17:54.455Z,101484.49
2018-07-25T22:20:23.799Z,101482.66
2018-07-25T22:22:53.743Z,101483.52
2018-07-25T22:25:22.525Z,101482.16
2018-07-25T22:27:51.492Z,101480.49
2018-07-25T22:30:20.259Z,101476.98
2018-07-25T22:32:49.343Z,101482.70
2018-07-25T22:35:18.427Z,101482.36
2018-07-25T22:37:47.174Z,101484.56
2018-07-25T22:40:16.006Z,101485.06
2018-07-25T22:42:45.684Z,101476.70
2018-07-25T22:45:15.443Z,101471.97
2018-07-25T22:47:45.455Z,101476.61
2018-07-25T22:50:15.152Z,101472.72
2018-07-25T22:52:44.794Z,101474.03
2018-07-25T22:55:14.412Z,101479.09
2018-07-25T22:57:43.568Z,101477.65
2018-07-25T23:00:13.330Z,101486.84
2018-07-25T23:02:42.061Z,101489.20
2018-07-25T23:05:10.792Z,101485.20
2018-07-25T23:07:39.554Z,101487.16
2018-07-25T23:10:08.356Z,101481.41
2018-07-25T23:12:37.448Z,101486.52
2018-07-25T23:15:06.638Z,101488.47
2018-07-25T23:17:35.881Z,101489.44
2018-07-25T23:20:04.900Z,101489.15
2018-07-25T23:22:44.391Z,101479.44
2018-07-25T23:25:13.462Z,101487.06
2018-07-25T23:27:42.759Z,101481.28
2018-07-25T23:30:11.899Z,101484.80
2018-07-25T23:32:41.905Z,101481.52
2018-07-25T23:35:11.352Z,101481.33
2018-07-25T23:37:40.477Z,101484.39
2018-07-25T23:40:09.327Z,101479.16
2018-07-25T23:42:38.737Z,101480.03
2018-07-25T23:45:07.578Z,101477.41
2018-07-25T23:47:36.350Z,101476.82
2018-07-25T23:50:05.327Z,101479.36
2018-07-25T23:52:34.616Z,101471.23
2018-07-25T23:55:03.378Z,101473.13
2018-07-25T23:57:32.123Z,101482.56
